Caleta Olivia, Argentina
Current Conditions -  °F | °C
As of 9:00 PM on Tuesday 25 Nov 2014 (Local Time) from SAVC Reporting Station
Clear Clear  
Wind Chill: 66°   Ceiling: Unl
Heat Index: 66°   Visibility: 6mi
Dew Point: 30°   Wind: 17mph
Humidity: 26%   Direction: 250°WSW
Pressure: 29.71"   Gusts: NA
Location:  46.43°S, 67.53°W
Report Text: SAVC 260000Z 25015KT CAVOK 19/M01 Q1006
Loading
Personal Weather Stations






























Interactive Weather Map New forecast layout! Learn more

10-Day Weather Forecast

Advertisements
Track Severe Weather on mobile